Alhaurin de la Torre, Spain
Current Conditions -  °F | °C
As of 5:00 AM on Sunday 26 Oct 2014 (Local Time) from LEMG Reporting Station
Clear Clear  
Wind Chill: 59°   Ceiling: Unl
Heat Index: 59°   Visibility: 6mi
Dew Point: 46°   Wind: 10mph
Humidity: 63%   Direction: 290°WNW
Pressure: 30.12"   Gusts: NA
Location:  36.66°N, 4.56°W
Report Text: LEMG 260300Z 29009KT CAVOK 15/08 Q1020 NOSIG
Loading
Personal Weather Stations






























Interactive Weather Map
Tropical Storm Tracking
New forecast layout! Learn more

10-Day Weather Forecast

Advertisements
Track Severe Weather on mobile